地図

経路データ

SID SEASON NUMBER BASIN SUBBASIN NAME ISO_TIME NATURE LAT LON WMO_WIND WMO_PRES WMO_AGENCY TRACK_TYPE DIST2LAND LANDFALL IFLAG USA_AGENCY USA_ATCF_ID USA_LAT USA_LON USA_RECORD USA_STATUS USA_WIND USA_PRES USA_SSHS USA_R34_NE USA_R34_SE USA_R34_SW USA_R34_NW USA_R50_NE USA_R50_SE USA_R50_SW USA_R50_NW USA_R64_NE USA_R64_SE USA_R64_SW USA_R64_NW USA_POCI USA_ROCI USA_RMW USA_EYE TOKYO_LAT TOKYO_LON TOKYO_GRADE TOKYO_WIND TOKYO_PRES TOKYO_R50_DIR TOKYO_R50_LONG TOKYO_R50_SHORT TOKYO_R30_DIR TOKYO_R30_LONG TOKYO_R30_SHORT TOKYO_LAND CMA_LAT CMA_LON CMA_CAT CMA_WIND CMA_PRES HKO_LAT HKO_LON HKO_CAT HKO_WIND HKO_PRES NEWDELHI_LAT NEWDELHI_LON NEWDELHI_GRADE NEWDELHI_WIND NEWDELHI_PRES NEWDELHI_CI NEWDELHI_DP NEWDELHI_POCI REUNION_LAT REUNION_LON REUNION_TYPE REUNION_WIND REUNION_PRES REUNION_TNUM REUNION_CI REUNION_RMW REUNION_R34_NE REUNION_R34_SE REUNION_R34_SW REUNION_R34_NW REUNION_R50_NE REUNION_R50_SE REUNION_R50_SW REUNION_R50_NW REUNION_R64_NE REUNION_R64_SE REUNION_R64_SW REUNION_R64_NW BOM_LAT BOM_LON BOM_TYPE BOM_WIND BOM_PRES BOM_TNUM BOM_CI BOM_RMW BOM_R34_NE BOM_R34_SE BOM_R34_SW BOM_R34_NW BOM_R50_NE BOM_R50_SE BOM_R50_SW BOM_R50_NW BOM_R64_NE BOM_R64_SE BOM_R64_SW BOM_R64_NW BOM_ROCI BOM_POCI BOM_EYE BOM_POS_METHOD BOM_PRES_METHOD NADI_LAT NADI_LON NADI_CAT NADI_WIND NADI_PRES WELLINGTON_LAT WELLINGTON_LON WELLINGTON_WIND WELLINGTON_PRES DS824_LAT DS824_LON DS824_STAGE DS824_WIND DS824_PRES TD9636_LAT TD9636_LON TD9636_STAGE TD9636_WIND TD9636_PRES TD9635_LAT TD9635_LON TD9635_WIND TD9635_PRES TD9635_ROCI NEUMANN_LAT NEUMANN_LON NEUMANN_CLASS NEUMANN_WIND NEUMANN_PRES MLC_LAT MLC_LON MLC_CLASS MLC_WIND MLC_PRES USA_GUST BOM_GUST BOM_GUST_PER REUNION_GUST REUNION_GUST_PER USA_SEAHGT USA_SEARAD_NE USA_SEARAD_SE USA_SEARAD_SW USA_SEARAD_NW STORM_SPEED STORM_DIR
1857355S07085 1858 21 SI MM NOT_NAMED 1857-12-21 06:00:00 NR -6.80000 85.2000 spur-split 1512 1508 __________O___ -1 -6.80000 85.2000 7 7 239
1857355S07085 1858 21 SI MM NOT_NAMED 1857-12-21 09:00:00 NR -6.97510 84.9095 spur-split 1522 1518 __________P___ -1 -6.97510 84.9095 7 7 239
1857355S07085 1858 21 SI MM NOT_NAMED 1857-12-21 12:00:00 NR -7.15010 84.6151 spur-split 1533 1527 __________P___ -1 -7.15010 84.6151 7 7 239
1857355S07085 1858 21 SI MM NOT_NAMED 1857-12-21 15:00:00 NR -7.32505 84.3132 spur-split 1535 1535 __________P___ -1 -7.32505 84.3132 7 7 240
1857355S07085 1858 21 SI MM NOT_NAMED 1857-12-21 18:00:00 NR -7.50000 84.0000 spur-split 1548 1545 __________O___ -1 -7.50000 84.0000 7 7 241
1857355S07085 1858 21 SI MM NOT_NAMED 1857-12-21 21:00:00 NR -7.67499 83.6740 spur-split 1562 1557 __________P___ -1 -7.67499 83.6740 7 7 242
1857355S07085 1858 21 SI MM NOT_NAMED 1857-12-22 00:00:00 NR -7.85000 83.3425 spur-split 1564 1564 __________P___ -1 -7.85000 83.3425 7 7 242
1857355S07085 1858 21 SI MM NOT_NAMED 1857-12-22 03:00:00 NR -8.02500 83.0146 spur-split 1580 1580 __________P___ -1 -8.02500 83.0146 7 7 241
1857355S07085 1858 21 SI MM NOT_NAMED 1857-12-22 06:00:00 NR -8.20000 82.7000 spur-split 1597 1595 __________O___ -1 -8.20000 82.7000 7 7 240
1857355S07085 1858 21 SI MM NOT_NAMED 1857-12-22 09:00:00 NR -8.37899 82.4025 spur-split 1614 1613 __________P___ -1 -8.37899 82.4025 7 7 238
1857355S07085 1858 21 SI MM NOT_NAMED 1857-12-22 12:00:00 NR -8.55741 82.1199 spur-split 1633 1632 __________P___ -1 -8.55741 82.1199 7 7 237
1857355S07085 1858 21 SI MM NOT_NAMED 1857-12-22 15:00:00 NR -8.73213 81.8525 spur-split 1642 1641 __________P___ -1 -8.73213 81.8525 7 6 236
1857355S07085 1858 21 SI MM NOT_NAMED 1857-12-22 18:00:00 NR -8.90000 81.6000 spur-split 1662 1661 __________O___ -1 -8.90000 81.6000 7 6 237
1857355S07085 1858 21 SI MM NOT_NAMED 1857-12-22 21:00:00 NR -9.05714 81.3484 spur-split 1682 1682 __________P___ -1 -9.05714 81.3484 7 6 237
1857355S07085 1858 21 SI MM NOT_NAMED 1857-12-23 00:00:00 NR -9.20745 81.1124 spur-split 1692 1692 __________P___ -1 -9.20745 81.1124 7 5 236
1857355S07085 1858 21 SI MM NOT_NAMED 1857-12-23 03:00:00 NR -9.35404 80.8953 spur-split 1714 1714 __________P___ -1 -9.35404 80.8953 7 5 234
1857355S07085 1858 21 SI MM NOT_NAMED 1857-12-23 06:00:00 NR -9.50000 80.7000 spur-split 1725 1725 __________O___ -1 -9.50000 80.7000 7 5 232
1857355S07085 1858 21 SI MM NOT_NAMED 1857-12-23 09:00:00 NR -9.63776 80.5202 spur-split 1736 1736 __________P___ -1 -9.63776 80.5202 7 4 230
1857355S07085 1858 21 SI MM NOT_NAMED 1857-12-23 12:00:00 NR -9.77744 80.3624 spur-split 1759 1759 __________P___ -1 -9.77744 80.3624 7 4 225
1857355S07085 1858 21 SI MM NOT_NAMED 1857-12-23 15:00:00 NR -9.92840 80.2234 spur-split 1770 1770 __________P___ -1 -9.92840 80.2234 7 4 219
1857355S07085 1858 21 SI MM NOT_NAMED 1857-12-23 18:00:00 NR -10.1000 80.1000 spur-split 1793 1793 __________O___ -1 -10.1000 80.1000 7 5 214
1857355S07085 1858 21 SI MM NOT_NAMED 1857-12-23 21:00:00 NR -10.3034 79.9654 spur-split 1816 1816 __________P___ -1 -10.3034 79.9654 7 5 210
1857355S07085 1858 21 SI MM NOT_NAMED 1857-12-24 00:00:00 NR -10.5275 79.8476 spur-split 1839 1839 __________P___ -1 -10.5275 79.8476 7 5 204
1857355S07085 1858 21 SI MM NOT_NAMED 1857-12-24 03:00:00 NR -10.7628 79.7560 spur-split 1873 1873 __________P___ -1 -10.7628 79.7560 7 5 197
1857355S07085 1858 21 SI MM NOT_NAMED 1857-12-24 06:00:00 NR -11.0000 79.7000 spur-split 1896 1896 __________O___ -1 -11.0000 79.7000 7 5 189
1857355S07085 1858 21 SI MM NOT_NAMED 1857-12-24 09:00:00 NR -11.2372 79.6808 spur-split 1918 1918 __________P___ -1 -11.2372 79.6808 7 5 183
1857355S07085 1858 21 SI MM NOT_NAMED 1857-12-24 12:00:00 NR -11.4725 79.6974 spur-split 1952 1952 __________P___ -1 -11.4725 79.6974 7 5 173
1857355S07085 1858 21 SI MM NOT_NAMED 1857-12-24 15:00:00 NR -11.6965 79.7402 spur-split 1974 1973 __________P___ -1 -11.6965 79.7402 7 4 167
1857355S07085 1858 21 SI MM NOT_NAMED 1857-12-24 18:00:00 NR -11.9000 79.8000 spur-split 1996 1996 __________O___ -1 -11.9000 79.8000 7 4 168
1857355S07085 1858 21 SI MM NOT_NAMED 1857-12-24 21:00:00 NR -12.0592 79.8243 spur-split 2018 2018 __________P___ -1 -12.0592 79.8243 7 3 168
1857355S07085 1858 21 SI MM NOT_NAMED 1857-12-25 00:00:00 NR -12.1998 79.8679 spur-split 2029 2029 __________P___ -1 -12.1998 79.8679 7 3 155
1857355S07085 1858 21 SI MM NOT_NAMED 1857-12-25 03:00:00 NR -12.3404 79.9525 spur-split 2040 2040 __________P___ -1 -12.3404 79.9525 7 4 143
1857355S07085 1858 21 SI MM NOT_NAMED 1857-12-25 06:00:00 NR -12.5000 80.1000 spur-split 2062 2062 __________O___ -1 -12.5000 80.1000 7 5 135
1857355S07085 1858 21 SI MM NOT_NAMED 1857-12-25 09:00:00 NR -12.7157 80.3310 spur-split 2084 2084 __________P___ -1 -12.7157 80.3310 7 7 131
1857355S07085 1858 21 SI MM NOT_NAMED 1857-12-25 12:00:00 NR -12.9501 80.6247 spur-split 2117 2117 __________P___ -1 -12.9501 80.6247 7 8 128
1857355S07085 1858 21 SI MM NOT_NAMED 1857-12-25 15:00:00 NR -13.1845 80.9560 spur-split 2140 2140 __________P___ -1 -13.1845 80.9560 7 8 124
1857355S07085 1858 21 SI MM NOT_NAMED 1857-12-25 18:00:00 NR -13.4000 81.3000 spur-split 2163 2163 __________O___ -1 -13.4000 81.3000 7 8 121
1857355S07085 1858 21 SI MM NOT_NAMED 1857-12-25 21:00:00 NR -13.5829 81.6360 spur-split 2187 2187 __________P___ -1 -13.5829 81.6360 7 7 118
1857355S07085 1858 21 SI MM NOT_NAMED 1857-12-26 00:00:00 NR -13.7376 81.9625 spur-split 2201 2201 __________P___ -1 -13.7376 81.9625 7 7 115
1857355S07085 1858 21 SI MM NOT_NAMED 1857-12-26 03:00:00 NR -13.8736 82.2827 spur-split 2226 2226 __________P___ -1 -13.8736 82.2827 7 7 113
1857355S07085 1858 21 SI MM NOT_NAMED 1857-12-26 06:00:00 NR -14.0000 82.6000 spur-split 2240 __________O___ -1 -14.0000 82.6000 7 7 112

IBTrACS Databaseについて

本データベースは、米国NOAAが公開する1842年以降の世界の熱帯低気圧のベストトラックデータアーカイブInternational Best Track Archive for Climate Stewardship (IBTrACS)を、ウェブで閲覧しやすい形式に変換したものです。

最終更新日:2021-11-26